sensor_id;sensor_type;location;lat;lon;timestamp;P1;durP1;ratioP1;P2;durP2;ratioP2
25479;SDS011;13393;49.378;8.686;2022-11-15T00:02:22;7.70;;;4.35;;
25479;SDS011;13393;49.378;8.686;2022-11-15T00:04:48;6.78;;;4.68;;
25479;SDS011;13393;49.378;8.686;2022-11-15T00:07:14;5.72;;;4.40;;
25479;SDS011;13393;49.378;8.686;2022-11-15T00:09:42;8.23;;;4.28;;
25479;SDS011;13393;49.378;8.686;2022-11-15T00:12:08;5.82;;;4.18;;
25479;SDS011;13393;49.378;8.686;2022-11-15T00:14:35;4.30;;;3.80;;
25479;SDS011;13393;49.378;8.686;2022-11-15T00:17:01;6.88;;;4.40;;
25479;SDS011;13393;49.378;8.686;2022-11-15T00:19:28;7.68;;;4.15;;
25479;SDS011;13393;49.378;8.686;2022-11-15T00:21:54;5.22;;;3.97;;
25479;SDS011;13393;49.378;8.686;2022-11-15T00:24:20;4.90;;;3.85;;
25479;SDS011;13393;49.378;8.686;2022-11-15T00:26:48;6.07;;;3.97;;
25479;SDS011;13393;49.378;8.686;2022-11-15T00:29:14;5.93;;;3.63;;
25479;SDS011;13393;49.378;8.686;2022-11-15T00:31:41;5.05;;;3.60;;
25479;SDS011;13393;49.378;8.686;2022-11-15T00:34:08;5.07;;;3.72;;
25479;SDS011;13393;49.378;8.686;2022-11-15T00:36:35;6.32;;;3.35;;
25479;SDS011;13393;49.378;8.686;2022-11-15T00:39:03;5.32;;;3.67;;
25479;SDS011;13393;49.378;8.686;2022-11-15T00:41:30;6.90;;;3.40;;
25479;SDS011;13393;49.378;8.686;2022-11-15T00:43:57;7.07;;;3.30;;
25479;SDS011;13393;49.378;8.686;2022-11-15T00:46:24;6.10;;;3.53;;
25479;SDS011;13393;49.378;8.686;2022-11-15T00:48:50;4.45;;;3.38;;
25479;SDS011;13393;49.378;8.686;2022-11-15T00:51:17;4.32;;;3.30;;
25479;SDS011;13393;49.378;8.686;2022-11-15T00:53:43;5.55;;;3.42;;
25479;SDS011;13393;49.378;8.686;2022-11-15T00:56:10;5.25;;;3.63;;
25479;SDS011;13393;49.378;8.686;2022-11-15T00:58:36;4.85;;;3.10;;
25479;SDS011;13393;49.378;8.686;2022-11-15T01:01:08;4.45;;;3.22;;
25479;SDS011;13393;49.378;8.686;2022-11-15T01:03:35;4.85;;;3.30;;
25479;SDS011;13393;49.378;8.686;2022-11-15T01:06:01;4.38;;;3.28;;
25479;SDS011;13393;49.378;8.686;2022-11-15T01:08:28;7.65;;;3.60;;
25479;SDS011;13393;49.378;8.686;2022-11-15T01:10:54;5.25;;;3.50;;
25479;SDS011;13393;49.378;8.686;2022-11-15T01:13:21;4.65;;;3.30;;
25479;SDS011;13393;49.378;8.686;2022-11-15T01:15:47;5.28;;;3.10;;
25479;SDS011;13393;49.378;8.686;2022-11-15T01:18:15;4.38;;;3.33;;
25479;SDS011;13393;49.378;8.686;2022-11-15T01:20:41;5.93;;;3.55;;
25479;SDS011;13393;49.378;8.686;2022-11-15T01:23:08;5.75;;;3.22;;
25479;SDS011;13393;49.378;8.686;2022-11-15T01:25:34;5.15;;;3.00;;
25479;SDS011;13393;49.378;8.686;2022-11-15T01:28:01;4.65;;;2.85;;
25479;SDS011;13393;49.378;8.686;2022-11-15T01:30:27;3.90;;;3.17;;
25479;SDS011;13393;49.378;8.686;2022-11-15T01:32:53;3.30;;;2.92;;
25479;SDS011;13393;49.378;8.686;2022-11-15T01:35:21;5.70;;;3.10;;
25479;SDS011;13393;49.378;8.686;2022-11-15T01:37:48;4.25;;;2.90;;
25479;SDS011;13393;49.378;8.686;2022-11-15T01:40:14;5.20;;;3.08;;
25479;SDS011;13393;49.378;8.686;2022-11-15T01:42:40;5.93;;;3.20;;
25479;SDS011;13393;49.378;8.686;2022-11-15T01:45:07;8.23;;;3.65;;
25479;SDS011;13393;49.378;8.686;2022-11-15T01:47:39;6.40;;;3.47;;
25479;SDS011;13393;49.378;8.686;2022-11-15T01:50:08;5.03;;;3.00;;
25479;SDS011;13393;49.378;8.686;2022-11-15T01:52:37;3.58;;;2.47;;
25479;SDS011;13393;49.378;8.686;2022-11-15T01:55:05;6.95;;;3.58;;
25479;SDS011;13393;49.378;8.686;2022-11-15T01:57:33;4.68;;;2.83;;
25479;SDS011;13393;49.378;8.686;2022-11-15T02:00:00;3.75;;;2.90;;
25479;SDS011;13393;49.378;8.686;2022-11-15T02:02:26;3.47;;;2.92;;
25479;SDS011;13393;49.378;8.686;2022-11-15T02:04:53;4.53;;;3.35;;
25479;SDS011;13393;49.378;8.686;2022-11-15T02:07:20;6.72;;;3.40;;
25479;SDS011;13393;49.378;8.686;2022-11-15T02:09:48;4.35;;;2.92;;
25479;SDS011;13393;49.378;8.686;2022-11-15T02:12:16;3.88;;;2.80;;
25479;SDS011;13393;49.378;8.686;2022-11-15T02:14:44;6.68;;;3.00;;
25479;SDS011;13393;49.378;8.686;2022-11-15T02:17:19;5.15;;;3.13;;
25479;SDS011;13393;49.378;8.686;2022-11-15T02:22:42;3.55;;;3.10;;
25479;SDS011;13393;49.378;8.686;2022-11-15T02:25:19;5.88;;;3.65;;
25479;SDS011;13393;49.378;8.686;2022-11-15T02:27:59;6.07;;;3.20;;
25479;SDS011;13393;49.378;8.686;2022-11-15T02:30:36;7.22;;;3.25;;
25479;SDS011;13393;49.378;8.686;2022-11-15T02:33:07;4.68;;;3.38;;
25479;SDS011;13393;49.378;8.686;2022-11-15T02:35:37;6.68;;;4.32;;
25479;SDS011;13393;49.378;8.686;2022-11-15T02:38:06;7.78;;;5.25;;
25479;SDS011;13393;49.378;8.686;2022-11-15T02:40:35;10.05;;;5.18;;
25479;SDS011;13393;49.378;8.686;2022-11-15T02:43:07;10.57;;;5.25;;
25479;SDS011;13393;49.378;8.686;2022-11-15T02:45:53;14.68;;;8.02;;
25479;SDS011;13393;49.378;8.686;2022-11-15T02:48:22;10.77;;;5.10;;
25479;SDS011;13393;49.378;8.686;2022-11-15T02:50:50;7.45;;;4.70;;
25479;SDS011;13393;49.378;8.686;2022-11-15T02:53:16;9.18;;;5.07;;
25479;SDS011;13393;49.378;8.686;2022-11-15T02:55:43;5.57;;;4.43;;
25479;SDS011;13393;49.378;8.686;2022-11-15T02:58:16;10.77;;;5.07;;
25479;SDS011;13393;49.378;8.686;2022-11-15T03:00:45;7.40;;;4.57;;
25479;SDS011;13393;49.378;8.686;2022-11-15T03:03:21;6.82;;;4.43;;
25479;SDS011;13393;49.378;8.686;2022-11-15T03:05:51;6.75;;;4.70;;
25479;SDS011;13393;49.378;8.686;2022-11-15T03:08:21;8.43;;;4.78;;
25479;SDS011;13393;49.378;8.686;2022-11-15T03:10:50;6.72;;;4.43;;
25479;SDS011;13393;49.378;8.686;2022-11-15T03:13:21;6.53;;;4.60;;
25479;SDS011;13393;49.378;8.686;2022-11-15T03:15:50;7.03;;;4.13;;
25479;SDS011;13393;49.378;8.686;2022-11-15T03:18:19;6.03;;;4.10;;
25479;SDS011;13393;49.378;8.686;2022-11-15T03:20:48;4.53;;;3.45;;
25479;SDS011;13393;49.378;8.686;2022-11-15T03:23:16;6.90;;;3.63;;
25479;SDS011;13393;49.378;8.686;2022-11-15T03:25:44;6.60;;;3.35;;
25479;SDS011;13393;49.378;8.686;2022-11-15T03:28:12;5.55;;;3.20;;
25479;SDS011;13393;49.378;8.686;2022-11-15T03:30:40;6.75;;;3.20;;
25479;SDS011;13393;49.378;8.686;2022-11-15T03:33:08;6.65;;;2.92;;
25479;SDS011;13393;49.378;8.686;2022-11-15T03:35:37;4.32;;;2.88;;
25479;SDS011;13393;49.378;8.686;2022-11-15T03:38:06;7.10;;;2.88;;
25479;SDS011;13393;49.378;8.686;2022-11-15T03:40:36;3.63;;;2.60;;
25479;SDS011;13393;49.378;8.686;2022-11-15T03:43:04;3.13;;;2.50;;
25479;SDS011;13393;49.378;8.686;2022-11-15T03:45:35;4.65;;;2.70;;
25479;SDS011;13393;49.378;8.686;2022-11-15T03:48:02;4.07;;;2.63;;
25479;SDS011;13393;49.378;8.686;2022-11-15T03:50:31;5.05;;;2.67;;
25479;SDS011;13393;49.378;8.686;2022-11-15T03:52:57;3.67;;;2.90;;
25479;SDS011;13393;49.378;8.686;2022-11-15T03:55:26;4.82;;;3.00;;
25479;SDS011;13393;49.378;8.686;2022-11-15T03:57:53;4.68;;;3.10;;
25479;SDS011;13393;49.378;8.686;2022-11-15T04:00:20;4.97;;;2.85;;
25479;SDS011;13393;49.378;8.686;2022-11-15T04:02:47;4.35;;;3.10;;
25479;SDS011;13393;49.378;8.686;2022-11-15T04:05:13;5.68;;;3.42;;
25479;SDS011;13393;49.378;8.686;2022-11-15T04:07:39;5.20;;;3.30;;
25479;SDS011;13393;49.378;8.686;2022-11-15T04:10:06;7.57;;;3.63;;
25479;SDS011;13393;49.378;8.686;2022-11-15T04:12:34;4.72;;;3.58;;
25479;SDS011;13393;49.378;8.686;2022-11-15T04:15:02;5.15;;;3.50;;
25479;SDS011;13393;49.378;8.686;2022-11-15T04:17:36;4.03;;;3.55;;
25479;SDS011;13393;49.378;8.686;2022-11-15T04:20:03;6.00;;;3.40;;
25479;SDS011;13393;49.378;8.686;2022-11-15T04:22:47;3.20;;;2.80;;
25479;SDS011;13393;49.378;8.686;2022-11-15T04:25:30;3.38;;;2.92;;
25479;SDS011;13393;49.378;8.686;2022-11-15T04:27:58;4.22;;;3.10;;
25479;SDS011;13393;49.378;8.686;2022-11-15T04:30:24;4.88;;;2.97;;
25479;SDS011;13393;49.378;8.686;2022-11-15T04:32:51;10.02;;;3.70;;
25479;SDS011;13393;49.378;8.686;2022-11-15T04:35:17;5.20;;;3.45;;
25479;SDS011;13393;49.378;8.686;2022-11-15T04:37:43;6.25;;;3.17;;
25479;SDS011;13393;49.378;8.686;2022-11-15T04:40:10;3.60;;;2.75;;
25479;SDS011;13393;49.378;8.686;2022-11-15T04:42:36;5.35;;;3.00;;
25479;SDS011;13393;49.378;8.686;2022-11-15T04:45:04;5.38;;;3.20;;
25479;SDS011;13393;49.378;8.686;2022-11-15T04:47:31;8.82;;;3.88;;
25479;SDS011;13393;49.378;8.686;2022-11-15T04:49:57;4.47;;;3.00;;
25479;SDS011;13393;49.378;8.686;2022-11-15T04:52:24;5.57;;;3.33;;
25479;SDS011;13393;49.378;8.686;2022-11-15T04:54:50;3.83;;;3.00;;
25479;SDS011;13393;49.378;8.686;2022-11-15T04:57:17;5.78;;;3.03;;
25479;SDS011;13393;49.378;8.686;2022-11-15T04:59:43;4.43;;;3.25;;
25479;SDS011;13393;49.378;8.686;2022-11-15T05:02:11;5.35;;;3.10;;
25479;SDS011;13393;49.378;8.686;2022-11-15T05:04:37;8.60;;;3.35;;
25479;SDS011;13393;49.378;8.686;2022-11-15T05:07:02;6.45;;;3.25;;
25479;SDS011;13393;49.378;8.686;2022-11-15T05:09:30;3.95;;;3.10;;
25479;SDS011;13393;49.378;8.686;2022-11-15T05:11:56;5.00;;;3.10;;
25479;SDS011;13393;49.378;8.686;2022-11-15T05:14:22;3.60;;;3.03;;
25479;SDS011;13393;49.378;8.686;2022-11-15T05:16:49;6.85;;;3.42;;
25479;SDS011;13393;49.378;8.686;2022-11-15T05:19:16;4.82;;;3.67;;
25479;SDS011;13393;49.378;8.686;2022-11-15T05:21:43;7.95;;;4.00;;
25479;SDS011;13393;49.378;8.686;2022-11-15T05:24:09;6.10;;;3.33;;
25479;SDS011;13393;49.378;8.686;2022-11-15T05:26:36;5.28;;;3.17;;
25479;SDS011;13393;49.378;8.686;2022-11-15T05:29:02;4.75;;;3.10;;
25479;SDS011;13393;49.378;8.686;2022-11-15T05:31:28;6.38;;;3.22;;
25479;SDS011;13393;49.378;8.686;2022-11-15T05:33:55;6.30;;;3.10;;
25479;SDS011;13393;49.378;8.686;2022-11-15T05:36:26;4.28;;;3.28;;
25479;SDS011;13393;49.378;8.686;2022-11-15T05:38:53;5.03;;;3.63;;
25479;SDS011;13393;49.378;8.686;2022-11-15T05:41:20;4.68;;;3.80;;
25479;SDS011;13393;49.378;8.686;2022-11-15T05:43:48;4.68;;;3.20;;
25479;SDS011;13393;49.378;8.686;2022-11-15T05:46:15;4.95;;;3.55;;
25479;SDS011;13393;49.378;8.686;2022-11-15T05:48:42;4.70;;;3.50;;
25479;SDS011;13393;49.378;8.686;2022-11-15T05:51:09;7.00;;;3.90;;
25479;SDS011;13393;49.378;8.686;2022-11-15T05:53:37;4.15;;;3.65;;
25479;SDS011;13393;49.378;8.686;2022-11-15T05:56:03;6.03;;;3.53;;
25479;SDS011;13393;49.378;8.686;2022-11-15T05:58:30;7.90;;;3.72;;
25479;SDS011;13393;49.378;8.686;2022-11-15T06:00:57;4.88;;;3.50;;
25479;SDS011;13393;49.378;8.686;2022-11-15T06:03:23;5.90;;;3.65;;
25479;SDS011;13393;49.378;8.686;2022-11-15T06:05:50;4.38;;;3.42;;
25479;SDS011;13393;49.378;8.686;2022-11-15T06:08:16;4.43;;;3.08;;
25479;SDS011;13393;49.378;8.686;2022-11-15T06:10:44;4.30;;;3.13;;
25479;SDS011;13393;49.378;8.686;2022-11-15T06:13:10;4.07;;;3.25;;
25479;SDS011;13393;49.378;8.686;2022-11-15T06:15:36;8.75;;;3.70;;
25479;SDS011;13393;49.378;8.686;2022-11-15T06:18:03;4.78;;;3.30;;
25479;SDS011;13393;49.378;8.686;2022-11-15T06:20:29;7.28;;;3.22;;
25479;SDS011;13393;49.378;8.686;2022-11-15T06:22:56;4.93;;;3.80;;
25479;SDS011;13393;49.378;8.686;2022-11-15T06:25:23;5.28;;;3.40;;
25479;SDS011;13393;49.378;8.686;2022-11-15T06:27:52;5.00;;;3.20;;
25479;SDS011;13393;49.378;8.686;2022-11-15T06:30:18;5.43;;;3.15;;
25479;SDS011;13393;49.378;8.686;2022-11-15T06:32:45;5.45;;;3.22;;
25479;SDS011;13393;49.378;8.686;2022-11-15T06:35:11;6.18;;;3.60;;
25479;SDS011;13393;49.378;8.686;2022-11-15T06:37:37;4.65;;;3.50;;
25479;SDS011;13393;49.378;8.686;2022-11-15T06:40:04;6.63;;;3.50;;
25479;SDS011;13393;49.378;8.686;2022-11-15T06:42:31;5.55;;;3.22;;
25479;SDS011;13393;49.378;8.686;2022-11-15T06:44:59;7.18;;;3.75;;
25479;SDS011;13393;49.378;8.686;2022-11-15T06:47:25;6.97;;;3.92;;
25479;SDS011;13393;49.378;8.686;2022-11-15T06:49:51;6.47;;;3.28;;
25479;SDS011;13393;49.378;8.686;2022-11-15T06:52:18;7.93;;;3.33;;
25479;SDS011;13393;49.378;8.686;2022-11-15T06:54:44;3.72;;;3.10;;
25479;SDS011;13393;49.378;8.686;2022-11-15T06:57:11;6.07;;;3.00;;
25479;SDS011;13393;49.378;8.686;2022-11-15T06:59:37;4.53;;;3.40;;
25479;SDS011;13393;49.378;8.686;2022-11-15T07:02:05;4.00;;;2.72;;
25479;SDS011;13393;49.378;8.686;2022-11-15T07:04:31;3.78;;;2.70;;
25479;SDS011;13393;49.378;8.686;2022-11-15T07:06:58;6.53;;;3.00;;
25479;SDS011;13393;49.378;8.686;2022-11-15T07:09:24;4.68;;;2.80;;
25479;SDS011;13393;49.378;8.686;2022-11-15T07:11:51;5.25;;;3.03;;
25479;SDS011;13393;49.378;8.686;2022-11-15T07:14:17;6.15;;;3.15;;
25479;SDS011;13393;49.378;8.686;2022-11-15T07:16:43;10.57;;;3.47;;
25479;SDS011;13393;49.378;8.686;2022-11-15T07:19:11;14.45;;;3.25;;
25479;SDS011;13393;49.378;8.686;2022-11-15T07:21:38;7.20;;;3.10;;
25479;SDS011;13393;49.378;8.686;2022-11-15T07:24:05;7.25;;;3.00;;
25479;SDS011;13393;49.378;8.686;2022-11-15T07:26:31;8.30;;;3.03;;
25479;SDS011;13393;49.378;8.686;2022-11-15T07:28:57;10.85;;;3.22;;
25479;SDS011;13393;49.378;8.686;2022-11-15T07:31:24;6.68;;;2.90;;
25479;SDS011;13393;49.378;8.686;2022-11-15T07:33:50;5.07;;;2.50;;
25479;SDS011;13393;49.378;8.686;2022-11-15T07:36:18;6.20;;;2.40;;
25479;SDS011;13393;49.378;8.686;2022-11-15T07:38:44;4.35;;;2.30;;
25479;SDS011;13393;49.378;8.686;2022-11-15T07:41:11;3.10;;;2.25;;
25479;SDS011;13393;49.378;8.686;2022-11-15T07:43:37;4.95;;;2.38;;
25479;SDS011;13393;49.378;8.686;2022-11-15T07:46:04;4.05;;;2.08;;
25479;SDS011;13393;49.378;8.686;2022-11-15T07:48:32;4.47;;;2.20;;
25479;SDS011;13393;49.378;8.686;2022-11-15T07:50:58;7.55;;;2.42;;
25479;SDS011;13393;49.378;8.686;2022-11-15T07:53:26;2.92;;;2.40;;
25479;SDS011;13393;49.378;8.686;2022-11-15T07:55:53;3.83;;;2.05;;
25479;SDS011;13393;49.378;8.686;2022-11-15T07:58:19;2.00;;;1.75;;
25479;SDS011;13393;49.378;8.686;2022-11-15T08:00:45;3.42;;;2.10;;
25479;SDS011;13393;49.378;8.686;2022-11-15T08:03:13;7.90;;;2.40;;
25479;SDS011;13393;49.378;8.686;2022-11-15T08:05:40;7.50;;;2.55;;
25479;SDS011;13393;49.378;8.686;2022-11-15T08:08:07;5.32;;;2.70;;
25479;SDS011;13393;49.378;8.686;2022-11-15T08:10:35;4.15;;;1.95;;
25479;SDS011;13393;49.378;8.686;2022-11-15T08:13:03;4.50;;;2.20;;
25479;SDS011;13393;49.378;8.686;2022-11-15T08:15:30;3.95;;;1.90;;
25479;SDS011;13393;49.378;8.686;2022-11-15T08:17:57;3.38;;;1.98;;
25479;SDS011;13393;49.378;8.686;2022-11-15T08:20:24;3.40;;;1.90;;
25479;SDS011;13393;49.378;8.686;2022-11-15T08:22:51;3.78;;;2.03;;
25479;SDS011;13393;49.378;8.686;2022-11-15T08:25:17;4.65;;;2.10;;
25479;SDS011;13393;49.378;8.686;2022-11-15T08:27:45;6.10;;;2.33;;
25479;SDS011;13393;49.378;8.686;2022-11-15T08:30:12;6.68;;;2.70;;
25479;SDS011;13393;49.378;8.686;2022-11-15T08:32:38;8.32;;;2.92;;
25479;SDS011;13393;49.378;8.686;2022-11-15T08:35:05;4.28;;;2.45;;
25479;SDS011;13393;49.378;8.686;2022-11-15T08:37:32;3.72;;;2.40;;
25479;SDS011;13393;49.378;8.686;2022-11-15T08:39:58;4.78;;;2.30;;
25479;SDS011;13393;49.378;8.686;2022-11-15T08:42:24;3.70;;;2.08;;
25479;SDS011;13393;49.378;8.686;2022-11-15T08:44:52;5.57;;;2.22;;
25479;SDS011;13393;49.378;8.686;2022-11-15T08:47:18;4.22;;;2.10;;
25479;SDS011;13393;49.378;8.686;2022-11-15T08:49:45;4.32;;;2.35;;
25479;SDS011;13393;49.378;8.686;2022-11-15T08:52:11;2.33;;;1.92;;
25479;SDS011;13393;49.378;8.686;2022-11-15T08:54:38;4.47;;;2.20;;
25479;SDS011;13393;49.378;8.686;2022-11-15T08:57:04;8.27;;;2.30;;
25479;SDS011;13393;49.378;8.686;2022-11-15T08:59:30;4.75;;;2.22;;
25479;SDS011;13393;49.378;8.686;2022-11-15T09:01:58;9.68;;;2.72;;
25479;SDS011;13393;49.378;8.686;2022-11-15T09:04:24;5.72;;;2.45;;
25479;SDS011;13393;49.378;8.686;2022-11-15T09:06:51;6.22;;;3.00;;
25479;SDS011;13393;49.378;8.686;2022-11-15T09:09:17;7.28;;;2.40;;
25479;SDS011;13393;49.378;8.686;2022-11-15T09:11:44;3.78;;;2.50;;
25479;SDS011;13393;49.378;8.686;2022-11-15T09:14:10;2.53;;;1.90;;
25479;SDS011;13393;49.378;8.686;2022-11-15T09:16:37;4.57;;;2.28;;
25479;SDS011;13393;49.378;8.686;2022-11-15T09:19:05;4.07;;;2.33;;
25479;SDS011;13393;49.378;8.686;2022-11-15T09:21:31;3.65;;;2.33;;
25479;SDS011;13393;49.378;8.686;2022-11-15T09:23:57;5.07;;;2.72;;
25479;SDS011;13393;49.378;8.686;2022-11-15T09:26:24;4.72;;;2.88;;
25479;SDS011;13393;49.378;8.686;2022-11-15T09:28:50;12.95;;;3.60;;
25479;SDS011;13393;49.378;8.686;2022-11-15T09:31:17;3.65;;;2.40;;
25479;SDS011;13393;49.378;8.686;2022-11-15T09:33:43;5.43;;;2.17;;
25479;SDS011;13393;49.378;8.686;2022-11-15T09:36:12;6.57;;;2.20;;
25479;SDS011;13393;49.378;8.686;2022-11-15T09:38:38;4.85;;;2.22;;
25479;SDS011;13393;49.378;8.686;2022-11-15T09:41:26;3.38;;;2.03;;
25479;SDS011;13393;49.378;8.686;2022-11-15T09:43:58;6.13;;;2.50;;
25479;SDS011;13393;49.378;8.686;2022-11-15T09:46:31;4.00;;;1.90;;
25479;SDS011;13393;49.378;8.686;2022-11-15T09:49:00;4.95;;;2.25;;
25479;SDS011;13393;49.378;8.686;2022-11-15T09:51:30;4.80;;;2.13;;
25479;SDS011;13393;49.378;8.686;2022-11-15T09:54:02;2.67;;;2.20;;
25479;SDS011;13393;49.378;8.686;2022-11-15T09:56:30;2.17;;;1.67;;
25479;SDS011;13393;49.378;8.686;2022-11-15T09:58:59;2.28;;;1.83;;
25479;SDS011;13393;49.378;8.686;2022-11-15T10:01:32;2.58;;;1.83;;
25479;SDS011;13393;49.378;8.686;2022-11-15T10:04:00;4.35;;;2.55;;
25479;SDS011;13393;49.378;8.686;2022-11-15T10:06:26;3.65;;;2.40;;
25479;SDS011;13393;49.378;8.686;2022-11-15T10:08:57;7.82;;;2.15;;
25479;SDS011;13393;49.378;8.686;2022-11-15T10:11:25;4.35;;;2.30;;
25479;SDS011;13393;49.378;8.686;2022-11-15T10:13:52;3.38;;;2.25;;
25479;SDS011;13393;49.378;8.686;2022-11-15T10:16:25;3.58;;;1.95;;
25479;SDS011;13393;49.378;8.686;2022-11-15T10:18:56;3.67;;;2.20;;
25479;SDS011;13393;49.378;8.686;2022-11-15T10:21:28;5.03;;;1.98;;
25479;SDS011;13393;49.378;8.686;2022-11-15T10:23:57;2.72;;;1.90;;
25479;SDS011;13393;49.378;8.686;2022-11-15T10:26:23;4.05;;;2.00;;
25479;SDS011;13393;49.378;8.686;2022-11-15T10:28:50;4.60;;;2.00;;
25479;SDS011;13393;49.378;8.686;2022-11-15T10:31:23;2.55;;;1.80;;
25479;SDS011;13393;49.378;8.686;2022-11-15T10:33:50;6.40;;;2.07;;
25479;SDS011;13393;49.378;8.686;2022-11-15T10:36:18;3.60;;;2.30;;
25479;SDS011;13393;49.378;8.686;2022-11-15T10:38:55;2.30;;;1.92;;
25479;SDS011;13393;49.378;8.686;2022-11-15T10:41:29;2.47;;;1.80;;
25479;SDS011;13393;49.378;8.686;2022-11-15T10:44:07;4.53;;;2.00;;
25479;SDS011;13393;49.378;8.686;2022-11-15T10:46:34;5.63;;;2.03;;
25479;SDS011;13393;49.378;8.686;2022-11-15T10:49:10;3.47;;;2.13;;
25479;SDS011;13393;49.378;8.686;2022-11-15T10:51:40;2.80;;;1.90;;
25479;SDS011;13393;49.378;8.686;2022-11-15T10:54:07;5.72;;;2.10;;
25479;SDS011;13393;49.378;8.686;2022-11-15T10:56:37;5.10;;;2.40;;
25479;SDS011;13393;49.378;8.686;2022-11-15T10:59:05;3.22;;;1.80;;
25479;SDS011;13393;49.378;8.686;2022-11-15T11:01:31;4.50;;;2.30;;
25479;SDS011;13393;49.378;8.686;2022-11-15T11:04:11;1.95;;;1.70;;
25479;SDS011;13393;49.378;8.686;2022-11-15T11:06:45;4.15;;;2.20;;
25479;SDS011;13393;49.378;8.686;2022-11-15T11:09:20;2.33;;;2.05;;
25479;SDS011;13393;49.378;8.686;2022-11-15T11:11:49;3.15;;;2.28;;
25479;SDS011;13393;49.378;8.686;2022-11-15T11:14:17;6.20;;;2.30;;
25479;SDS011;13393;49.378;8.686;2022-11-15T11:16:47;6.45;;;2.60;;
25479;SDS011;13393;49.378;8.686;2022-11-15T11:19:18;3.10;;;2.28;;
25479;SDS011;13393;49.378;8.686;2022-11-15T11:21:46;4.03;;;2.30;;
25479;SDS011;13393;49.378;8.686;2022-11-15T11:24:15;3.95;;;2.00;;
25479;SDS011;13393;49.378;8.686;2022-11-15T11:26:45;4.38;;;2.10;;
25479;SDS011;13393;49.378;8.686;2022-11-15T11:29:28;3.00;;;2.38;;
25479;SDS011;13393;49.378;8.686;2022-11-15T11:32:01;3.45;;;2.03;;
25479;SDS011;13393;49.378;8.686;2022-11-15T11:34:34;2.95;;;2.00;;
25479;SDS011;13393;49.378;8.686;2022-11-15T11:37:07;4.18;;;2.45;;
25479;SDS011;13393;49.378;8.686;2022-11-15T11:39:39;6.35;;;2.10;;
25479;SDS011;13393;49.378;8.686;2022-11-15T11:42:10;2.42;;;2.05;;
25479;SDS011;13393;49.378;8.686;2022-11-15T11:44:43;7.40;;;2.30;;
25479;SDS011;13393;49.378;8.686;2022-11-15T11:47:14;3.58;;;2.00;;
25479;SDS011;13393;49.378;8.686;2022-11-15T11:49:44;2.65;;;2.10;;
25479;SDS011;13393;49.378;8.686;2022-11-15T11:52:13;3.65;;;2.17;;
25479;SDS011;13393;49.378;8.686;2022-11-15T11:54:44;2.60;;;1.88;;
25479;SDS011;13393;49.378;8.686;2022-11-15T11:57:14;2.72;;;1.88;;
25479;SDS011;13393;49.378;8.686;2022-11-15T11:59:43;4.65;;;1.98;;
25479;SDS011;13393;49.378;8.686;2022-11-15T12:02:15;4.82;;;2.28;;
25479;SDS011;13393;49.378;8.686;2022-11-15T12:04:43;2.85;;;1.80;;
25479;SDS011;13393;49.378;8.686;2022-11-15T12:07:13;4.38;;;1.90;;
25479;SDS011;13393;49.378;8.686;2022-11-15T12:09:43;2.90;;;1.83;;
25479;SDS011;13393;49.378;8.686;2022-11-15T12:12:11;2.40;;;1.92;;
25479;SDS011;13393;49.378;8.686;2022-11-15T12:14:43;4.82;;;1.75;;
25479;SDS011;13393;49.378;8.686;2022-11-15T12:17:11;3.97;;;1.90;;
25479;SDS011;13393;49.378;8.686;2022-11-15T12:19:38;3.92;;;2.00;;
25479;SDS011;13393;49.378;8.686;2022-11-15T12:22:06;3.42;;;1.88;;
25479;SDS011;13393;49.378;8.686;2022-11-15T12:24:37;4.03;;;2.60;;
25479;SDS011;13393;49.378;8.686;2022-11-15T12:27:06;5.63;;;2.22;;
25479;SDS011;13393;49.378;8.686;2022-11-15T12:29:36;2.08;;;1.60;;
25479;SDS011;13393;49.378;8.686;2022-11-15T12:32:05;2.13;;;1.73;;
25479;SDS011;13393;49.378;8.686;2022-11-15T12:34:43;1.92;;;1.52;;
25479;SDS011;13393;49.378;8.686;2022-11-15T12:40:16;2.85;;;1.75;;
25479;SDS011;13393;49.378;8.686;2022-11-15T12:42:56;2.80;;;1.50;;
25479;SDS011;13393;49.378;8.686;2022-11-15T12:45:26;1.90;;;1.25;;
25479;SDS011;13393;49.378;8.686;2022-11-15T12:47:54;1.58;;;1.20;;
25479;SDS011;13393;49.378;8.686;2022-11-15T12:55:50;7.38;;;2.25;;
25479;SDS011;13393;49.378;8.686;2022-11-15T12:58:41;4.10;;;1.95;;
25479;SDS011;13393;49.378;8.686;2022-11-15T13:01:52;3.65;;;2.47;;
25479;SDS011;13393;49.378;8.686;2022-11-15T13:06:50;2.28;;;2.08;;
25479;SDS011;13393;49.378;8.686;2022-11-15T13:12:02;4.30;;;1.58;;
25479;SDS011;13393;49.378;8.686;2022-11-15T13:14:49;2.55;;;1.20;;
25479;SDS011;13393;49.378;8.686;2022-11-15T13:17:35;1.50;;;1.40;;
25479;SDS011;13393;49.378;8.686;2022-11-15T13:20:16;3.13;;;1.45;;
25479;SDS011;13393;49.378;8.686;2022-11-15T13:22:45;4.35;;;1.90;;
25479;SDS011;13393;49.378;8.686;2022-11-15T13:25:23;2.22;;;1.60;;
25479;SDS011;13393;49.378;8.686;2022-11-15T13:30:22;2.22;;;1.30;;
25479;SDS011;13393;49.378;8.686;2022-11-15T13:32:49;3.60;;;1.30;;
25479;SDS011;13393;49.378;8.686;2022-11-15T13:35:18;2.22;;;1.30;;
25479;SDS011;13393;49.378;8.686;2022-11-15T13:37:47;4.05;;;1.30;;
25479;SDS011;13393;49.378;8.686;2022-11-15T13:40:19;4.32;;;1.42;;
25479;SDS011;13393;49.378;8.686;2022-11-15T13:42:46;2.60;;;1.40;;
25479;SDS011;13393;49.378;8.686;2022-11-15T13:45:13;2.03;;;1.40;;
25479;SDS011;13393;49.378;8.686;2022-11-15T13:47:40;1.80;;;1.10;;
25479;SDS011;13393;49.378;8.686;2022-11-15T13:50:10;4.53;;;1.20;;
25479;SDS011;13393;49.378;8.686;2022-11-15T13:52:36;5.00;;;1.58;;
25479;SDS011;13393;49.378;8.686;2022-11-15T13:55:09;3.25;;;1.60;;
25479;SDS011;13393;49.378;8.686;2022-11-15T13:57:37;4.50;;;1.90;;
25479;SDS011;13393;49.378;8.686;2022-11-15T14:00:05;3.05;;;1.63;;
25479;SDS011;13393;49.378;8.686;2022-11-15T14:02:49;2.72;;;1.38;;
25479;SDS011;13393;49.378;8.686;2022-11-15T14:05:16;3.38;;;1.70;;
25479;SDS011;13393;49.378;8.686;2022-11-15T14:07:52;2.20;;;1.20;;
25479;SDS011;13393;49.378;8.686;2022-11-15T14:10:25;1.25;;;1.08;;
25479;SDS011;13393;49.378;8.686;2022-11-15T14:12:53;4.70;;;1.50;;
25479;SDS011;13393;49.378;8.686;2022-11-15T14:15:24;2.97;;;1.80;;
25479;SDS011;13393;49.378;8.686;2022-11-15T14:17:52;2.40;;;1.50;;
25479;SDS011;13393;49.378;8.686;2022-11-15T14:20:28;2.15;;;1.30;;
25479;SDS011;13393;49.378;8.686;2022-11-15T14:22:57;1.95;;;1.45;;
25479;SDS011;13393;49.378;8.686;2022-11-15T14:25:26;2.00;;;1.50;;
25479;SDS011;13393;49.378;8.686;2022-11-15T14:28:09;2.95;;;1.40;;
25479;SDS011;13393;49.378;8.686;2022-11-15T14:30:36;1.38;;;1.27;;
25479;SDS011;13393;49.378;8.686;2022-11-15T14:33:11;1.13;;;1.08;;
25479;SDS011;13393;49.378;8.686;2022-11-15T14:35:43;2.28;;;1.40;;
25479;SDS011;13393;49.378;8.686;2022-11-15T14:38:09;2.40;;;1.50;;
25479;SDS011;13393;49.378;8.686;2022-11-15T14:40:37;2.25;;;1.50;;
25479;SDS011;13393;49.378;8.686;2022-11-15T14:43:04;3.55;;;1.85;;
25479;SDS011;13393;49.378;8.686;2022-11-15T14:45:30;2.85;;;2.58;;
25479;SDS011;13393;49.378;8.686;2022-11-15T14:47:56;5.72;;;2.65;;
25479;SDS011;13393;49.378;8.686;2022-11-15T14:50:23;6.47;;;3.05;;
25479;SDS011;13393;49.378;8.686;2022-11-15T14:52:49;2.75;;;2.28;;
25479;SDS011;13393;49.378;8.686;2022-11-15T14:55:17;7.85;;;3.58;;
25479;SDS011;13393;49.378;8.686;2022-11-15T14:57:46;4.10;;;2.58;;
25479;SDS011;13393;49.378;8.686;2022-11-15T15:00:13;4.55;;;2.70;;
25479;SDS011;13393;49.378;8.686;2022-11-15T15:02:40;3.45;;;2.40;;
25479;SDS011;13393;49.378;8.686;2022-11-15T15:05:11;4.30;;;2.50;;
25479;SDS011;13393;49.378;8.686;2022-11-15T15:07:39;5.65;;;2.25;;
25479;SDS011;13393;49.378;8.686;2022-11-15T15:10:06;5.75;;;2.70;;
25479;SDS011;13393;49.378;8.686;2022-11-15T15:12:32;4.47;;;2.67;;
25479;SDS011;13393;49.378;8.686;2022-11-15T15:15:00;5.13;;;2.58;;
25479;SDS011;13393;49.378;8.686;2022-11-15T15:17:26;5.03;;;2.65;;